Homeland, California
Current Conditions -  °F | °C
As of 1:35 PM on Friday 28 Nov 2014 (Local Time) from KF70 Reporting Station
Clear Clear  
Wind Chill: 82°   Ceiling: Unl
Heat Index: 82°   Visibility: 10mi
Dew Point: 23°   Wind: 5mph
Humidity: 11%   Direction: 230°SW
Pressure: 29.94"   Gusts: NA
Location:  33.74°N, 117.11°W
Report Text: KF70 282135Z AUTO 23004KT 10SM CLR 28/M05 A2994 RMK AO1
Loading
Personal Weather Stations






























Interactive Weather Map New forecast layout! Learn more

10-Day Weather Forecast

Advertisements
Track Severe Weather on mobile